createdAt,value
2019-04-27T00:02:24.828Z,7.90
2019-04-27T00:04:52.827Z,7.80
2019-04-27T00:07:28.417Z,7.80
2019-04-27T00:10:06.224Z,7.70
2019-04-27T00:12:33.193Z,7.50
2019-04-27T00:14:59.980Z,7.50
2019-04-27T00:17:43.453Z,7.50
2019-04-27T00:20:15.645Z,7.50
2019-04-27T00:22:47.074Z,7.40
2019-04-27T00:25:13.994Z,7.40
2019-04-27T00:27:40.849Z,7.50
2019-04-27T00:30:07.629Z,7.40
2019-04-27T00:32:34.421Z,7.50
2019-04-27T00:35:01.295Z,7.50
2019-04-27T00:37:35.629Z,7.50
2019-04-27T00:40:05.879Z,7.50
2019-04-27T00:42:33.322Z,7.50
2019-04-27T00:45:02.999Z,7.50
2019-04-27T00:47:30.068Z,7.50
2019-04-27T00:49:56.906Z,7.60
2019-04-27T00:52:24.125Z,7.70
2019-04-27T00:54:50.980Z,7.60
2019-04-27T00:57:33.102Z,7.60
2019-04-27T01:00:03.123Z,7.50
2019-04-27T01:02:35.511Z,7.60
2019-04-27T01:05:05.884Z,7.50
2019-04-27T01:07:33.399Z,7.50
2019-04-27T01:10:00.409Z,7.50
2019-04-27T01:12:27.240Z,7.50
2019-04-27T01:14:54.338Z,7.40
2019-04-27T01:17:21.187Z,7.40
2019-04-27T01:19:49.387Z,7.40
2019-04-27T01:22:16.308Z,7.50
2019-04-27T01:24:43.161Z,7.40
2019-04-27T01:27:24.072Z,7.40
2019-04-27T01:29:52.316Z,7.30
2019-04-27T01:32:20.662Z,7.30
2019-04-27T01:34:49.298Z,7.40
2019-04-27T01:37:16.404Z,7.40
2019-04-27T01:39:43.244Z,7.50
2019-04-27T01:42:10.630Z,7.60
2019-04-27T01:44:39.246Z,7.60
2019-04-27T01:47:06.425Z,7.50
2019-04-27T01:49:33.217Z,7.50
2019-04-27T01:52:00.065Z,7.40
2019-04-27T01:54:29.075Z,7.40
2019-04-27T01:56:55.993Z,7.30
2019-04-27T01:59:22.817Z,7.40
2019-04-27T02:01:58.769Z,7.30
2019-04-27T02:04:45.792Z,7.30
2019-04-27T02:07:12.634Z,7.30
2019-04-27T02:09:39.475Z,7.30
2019-04-27T02:12:06.522Z,7.30
2019-04-27T02:14:33.308Z,7.30
2019-04-27T02:17:00.189Z,7.40
2019-04-27T02:19:29.227Z,7.30
2019-04-27T02:21:56.861Z,7.40
2019-04-27T02:24:23.708Z,7.40
2019-04-27T02:26:50.505Z,7.40
2019-04-27T02:29:34.405Z,7.40
2019-04-27T02:32:10.433Z,7.30
2019-04-27T02:34:39.932Z,7.30
2019-04-27T02:37:06.745Z,7.30
2019-04-27T02:39:33.587Z,7.30
2019-04-27T02:42:01.180Z,7.20
2019-04-27T02:44:32.389Z,7.30
2019-04-27T02:47:00.307Z,7.20
2019-04-27T02:49:30.164Z,7.10
2019-04-27T02:52:13.134Z,7.10
2019-04-27T02:54:40.200Z,7.00
2019-04-27T02:57:09.624Z,7.10
2019-04-27T02:59:35.809Z,7.10
2019-04-27T03:02:04.804Z,7.10
2019-04-27T03:04:31.640Z,7.10
2019-04-27T03:07:00.265Z,7.00
2019-04-27T03:09:27.082Z,6.90
2019-04-27T03:11:54.573Z,6.90
2019-04-27T03:14:36.345Z,6.90
2019-04-27T03:17:02.931Z,6.90
2019-04-27T03:19:46.705Z,6.90
2019-04-27T03:22:15.303Z,6.90
2019-04-27T03:25:00.011Z,6.90
2019-04-27T03:27:31.709Z,6.90
2019-04-27T03:29:59.775Z,6.90
2019-04-27T03:32:30.841Z,6.90
2019-04-27T03:34:55.506Z,6.90
2019-04-27T03:37:22.340Z,7.00
2019-04-27T03:39:49.917Z,7.00
2019-04-27T03:42:17.237Z,7.20
2019-04-27T03:44:44.067Z,7.10
2019-04-27T03:47:12.781Z,7.10
2019-04-27T03:49:41.657Z,7.10
2019-04-27T03:52:26.888Z,7.20
2019-04-27T03:55:12.193Z,7.20
2019-04-27T03:58:00.172Z,7.10
2019-04-27T04:00:30.155Z,6.90
2019-04-27T04:02:57.413Z,6.90
2019-04-27T04:05:24.258Z,6.80
2019-04-27T04:07:51.129Z,6.80
2019-04-27T04:10:19.763Z,6.80
2019-04-27T04:12:50.098Z,6.80
2019-04-27T04:15:25.092Z,6.80
2019-04-27T04:17:51.985Z,6.80
2019-04-27T04:20:20.228Z,6.80
2019-04-27T04:22:47.149Z,7.00
2019-04-27T04:25:13.985Z,7.00
2019-04-27T04:27:42.775Z,6.90
2019-04-27T04:30:12.195Z,6.90
2019-04-27T04:32:39.522Z,6.90
2019-04-27T04:35:16.060Z,6.90
2019-04-27T04:37:42.841Z,7.00
2019-04-27T04:40:09.892Z,7.10
2019-04-27T04:42:39.235Z,7.00
2019-04-27T04:45:20.380Z,7.00
2019-04-27T04:47:49.737Z,7.10
2019-04-27T04:50:16.760Z,7.20
2019-04-27T04:52:43.555Z,7.10
2019-04-27T04:55:11.302Z,7.10
2019-04-27T04:57:40.062Z,7.10
2019-04-27T05:00:09.703Z,7.10
2019-04-27T05:02:36.325Z,7.10
2019-04-27T05:05:04.192Z,6.90
2019-04-27T05:07:31.033Z,6.80
2019-04-27T05:09:58.754Z,6.90
2019-04-27T05:12:25.871Z,7.00
2019-04-27T05:14:52.689Z,7.20
2019-04-27T05:17:19.712Z,7.20
2019-04-27T05:19:49.001Z,7.10
2019-04-27T05:22:15.865Z,7.30
2019-04-27T05:24:42.701Z,7.40
2019-04-27T05:27:09.525Z,7.50
2019-04-27T05:29:36.305Z,7.40
2019-04-27T05:32:03.144Z,7.50
2019-04-27T05:34:29.924Z,7.30
2019-04-27T05:36:59.028Z,7.30
2019-04-27T05:39:26.306Z,7.40
2019-04-27T05:41:53.288Z,7.30
2019-04-27T05:44:21.922Z,7.30
2019-04-27T05:47:11.745Z,7.30
2019-04-27T05:49:41.047Z,7.20
2019-04-27T05:52:14.418Z,7.10
2019-04-27T05:54:38.220Z,7.10
2019-04-27T05:57:05.413Z,7.20
2019-04-27T05:59:32.237Z,7.20
2019-04-27T06:01:59.398Z,7.20
2019-04-27T06:04:26.472Z,7.40
2019-04-27T06:06:53.253Z,7.50
2019-04-27T06:09:20.080Z,7.30
2019-04-27T06:11:50.258Z,7.30
2019-04-27T06:14:15.988Z,7.40
2019-04-27T06:16:42.772Z,7.30
2019-04-27T06:19:09.808Z,7.30
2019-04-27T06:21:36.787Z,7.40
2019-04-27T06:24:03.640Z,7.50
2019-04-27T06:26:30.593Z,7.40
2019-04-27T06:28:59.384Z,7.40
2019-04-27T06:31:26.250Z,7.30
2019-04-27T06:33:53.107Z,7.20
2019-04-27T06:36:20.313Z,7.10
2019-04-27T06:38:48.561Z,7.10
2019-04-27T06:41:16.420Z,7.00
2019-04-27T06:43:43.326Z,7.00
2019-04-27T06:46:10.134Z,6.90
2019-04-27T06:48:37.010Z,6.90
2019-04-27T06:51:05.722Z,7.00
2019-04-27T06:53:32.432Z,6.90
2019-04-27T06:55:59.328Z,7.00
2019-04-27T06:58:26.112Z,7.10
2019-04-27T07:00:52.960Z,7.10
2019-04-27T07:03:19.966Z,7.30
2019-04-27T07:05:48.587Z,7.30
2019-04-27T07:08:15.544Z,7.40
2019-04-27T07:10:42.424Z,7.60
2019-04-27T07:13:09.672Z,7.60
2019-04-27T07:15:38.588Z,7.60
2019-04-27T07:18:05.360Z,7.70
2019-04-27T07:20:32.145Z,7.70
2019-04-27T07:22:59.488Z,7.80
2019-04-27T07:25:26.529Z,7.90
2019-04-27T07:27:53.385Z,7.90
2019-04-27T07:30:20.868Z,7.90
2019-04-27T07:32:48.831Z,8.00
2019-04-27T07:35:15.776Z,8.20
2019-04-27T07:37:42.613Z,8.20
2019-04-27T07:40:09.986Z,8.20
2019-04-27T07:42:36.781Z,8.30
2019-04-27T07:45:11.168Z,8.30
2019-04-27T07:47:39.948Z,8.40
2019-04-27T07:50:06.902Z,8.40
2019-04-27T07:52:33.688Z,8.30
2019-04-27T07:55:01.164Z,8.30
2019-04-27T07:57:28.986Z,8.40
2019-04-27T07:59:55.876Z,8.60
2019-04-27T08:02:22.708Z,8.50
2019-04-27T08:04:50.524Z,8.70
2019-04-27T08:07:19.433Z,8.90
2019-04-27T08:09:46.055Z,9.10
2019-04-27T08:12:13.188Z,9.30
2019-04-27T08:14:40.021Z,9.50
2019-04-27T08:17:06.804Z,9.40
2019-04-27T08:19:33.627Z,9.50
2019-04-27T08:22:01.571Z,9.60
2019-04-27T08:24:29.474Z,9.50
2019-04-27T08:27:14.581Z,9.70
2019-04-27T08:29:46.196Z,9.90
2019-04-27T08:32:29.585Z,10.10
2019-04-27T08:34:56.429Z,10.30
2019-04-27T08:37:23.216Z,10.30
2019-04-27T08:39:51.082Z,10.40
2019-04-27T08:42:19.451Z,10.60
2019-04-27T08:44:46.284Z,10.90
2019-04-27T08:47:13.126Z,11.40
2019-04-27T08:49:39.948Z,11.70
2019-04-27T08:52:06.829Z,11.80
2019-04-27T08:54:33.616Z,11.70
2019-04-27T08:57:01.734Z,11.70
2019-04-27T08:59:29.663Z,11.70
2019-04-27T09:01:56.621Z,11.50
2019-04-27T09:04:23.400Z,11.40
2019-04-27T09:06:52.029Z,11.30
2019-04-27T09:09:29.614Z,11.30
2019-04-27T09:12:14.925Z,11.30
2019-04-27T09:14:43.584Z,11.30
2019-04-27T09:17:14.976Z,11.20
2019-04-27T09:19:43.814Z,11.10
2019-04-27T09:22:16.115Z,11.40
2019-04-27T09:24:39.729Z,11.70
2019-04-27T09:27:06.605Z,12.10
2019-04-27T09:29:33.389Z,11.50
2019-04-27T09:32:01.795Z,11.40
2019-04-27T09:34:29.392Z,11.40
2019-04-27T09:36:56.672Z,11.70
2019-04-27T09:39:23.517Z,11.90
2019-04-27T09:41:50.294Z,12.30
2019-04-27T09:44:17.217Z,12.40
2019-04-27T09:46:44.052Z,11.80
2019-04-27T09:49:12.197Z,11.60
2019-04-27T09:51:39.233Z,11.30
2019-04-27T09:54:08.024Z,11.00
2019-04-27T09:56:36.917Z,10.80
2019-04-27T09:59:03.730Z,10.80
2019-04-27T10:01:30.529Z,10.90
2019-04-27T10:03:57.408Z,11.00
2019-04-27T10:06:24.196Z,11.20
2019-04-27T10:08:50.980Z,11.20
2019-04-27T10:11:17.820Z,11.60
2019-04-27T10:13:46.423Z,12.10
2019-04-27T10:16:13.257Z,12.70
2019-04-27T10:18:40.093Z,13.10
2019-04-27T10:21:06.928Z,12.90
2019-04-27T10:23:33.769Z,12.80
2019-04-27T10:26:00.549Z,12.60
2019-04-27T10:28:27.366Z,12.20
2019-04-27T10:30:55.757Z,12.10
2019-04-27T10:33:23.711Z,12.10
2019-04-27T10:35:50.521Z,12.30
2019-04-27T10:38:17.485Z,12.40
2019-04-27T10:40:44.376Z,12.50
2019-04-27T10:43:11.220Z,12.60
2019-04-27T10:45:38.043Z,12.50
2019-04-27T10:48:04.893Z,12.60
2019-04-27T10:50:31.889Z,12.40
2019-04-27T10:52:59.376Z,12.10
2019-04-27T10:55:26.424Z,11.90
2019-04-27T10:57:53.299Z,12.00
2019-04-27T11:00:21.981Z,12.00
2019-04-27T11:02:48.761Z,12.10
2019-04-27T11:05:17.406Z,12.20
2019-04-27T11:07:44.280Z,11.90
2019-04-27T11:10:11.165Z,12.00
2019-04-27T11:12:38.015Z,12.30
2019-04-27T11:15:07.729Z,12.20
2019-04-27T11:17:34.766Z,11.60
2019-04-27T11:20:02.872Z,11.30
2019-04-27T11:22:29.792Z,11.10
2019-04-27T11:24:56.580Z,10.90
2019-04-27T11:27:23.423Z,10.60
2019-04-27T11:29:50.206Z,10.50
2019-04-27T11:32:17.040Z,10.30
2019-04-27T11:34:51.732Z,10.20
2019-04-27T11:37:19.915Z,10.10
2019-04-27T11:39:46.840Z,10.20
2019-04-27T11:42:13.690Z,10.70
2019-04-27T11:44:40.532Z,11.20
2019-04-27T11:47:07.320Z,11.70
2019-04-27T11:49:35.867Z,12.10
2019-04-27T11:52:02.805Z,12.40
2019-04-27T11:54:29.625Z,12.40
2019-04-27T11:56:56.952Z,12.90
2019-04-27T11:59:23.792Z,13.30
2019-04-27T12:01:51.009Z,13.30
2019-04-27T12:04:17.858Z,13.30
2019-04-27T12:06:46.135Z,12.90
2019-04-27T12:09:13.192Z,12.50
2019-04-27T12:11:39.997Z,12.30
2019-04-27T12:14:06.856Z,12.30
2019-04-27T12:16:33.641Z,11.80
2019-04-27T12:19:00.428Z,11.60
2019-04-27T12:21:27.273Z,11.60
2019-04-27T12:23:54.116Z,11.50
2019-04-27T12:26:25.937Z,11.50
2019-04-27T12:28:53.516Z,11.40
2019-04-27T12:31:28.461Z,11.60
2019-04-27T12:33:56.046Z,12.00
2019-04-27T12:36:23.037Z,12.10
2019-04-27T12:38:49.826Z,12.20
2019-04-27T12:41:17.051Z,12.30
2019-04-27T12:43:45.789Z,12.50
2019-04-27T12:46:12.731Z,12.70
2019-04-27T12:48:39.883Z,12.60
2019-04-27T12:51:06.745Z,12.50
2019-04-27T12:53:48.057Z,12.20
2019-04-27T12:56:12.110Z,12.20
2019-04-27T12:58:52.541Z,12.20
2019-04-27T13:01:21.280Z,12.30
2019-04-27T13:03:48.100Z,12.20
2019-04-27T13:06:14.984Z,12.20
2019-04-27T13:08:42.010Z,12.50
2019-04-27T13:11:09.739Z,12.70
2019-04-27T13:13:36.882Z,12.80
2019-04-27T13:16:03.909Z,12.90
2019-04-27T13:18:30.972Z,12.80
2019-04-27T13:20:57.795Z,12.80
2019-04-27T13:23:24.860Z,12.90
2019-04-27T13:25:51.610Z,12.90
2019-04-27T13:28:18.733Z,13.00
2019-04-27T13:30:47.464Z,12.90
2019-04-27T13:33:17.231Z,12.80
2019-04-27T13:35:43.069Z,12.80
2019-04-27T13:38:09.960Z,12.80
2019-04-27T13:40:38.724Z,13.10
2019-04-27T13:45:58.510Z,13.60
2019-04-27T13:48:27.963Z,13.70
2019-04-27T13:51:16.528Z,13.60
2019-04-27T13:53:45.508Z,13.70
2019-04-27T13:56:17.146Z,13.80
2019-04-27T13:58:44.581Z,13.90
2019-04-27T14:01:11.674Z,13.90
2019-04-27T14:03:39.323Z,13.90
2019-04-27T14:06:07.994Z,13.80
2019-04-27T14:08:34.906Z,13.70
2019-04-27T14:11:01.721Z,13.70
2019-04-27T14:13:28.824Z,13.50
2019-04-27T14:15:56.026Z,13.50
2019-04-27T14:18:22.801Z,13.30
2019-04-27T14:20:49.633Z,13.30
2019-04-27T14:23:18.780Z,13.40
2019-04-27T14:25:46.157Z,13.50
2019-04-27T14:28:13.037Z,13.60
2019-04-27T14:30:40.028Z,13.80
2019-04-27T14:33:08.485Z,13.80
2019-04-27T14:35:35.456Z,14.00
2019-04-27T14:38:02.285Z,14.10
2019-04-27T14:40:29.116Z,14.40
2019-04-27T14:42:55.896Z,14.80
2019-04-27T14:45:22.728Z,14.70
2019-04-27T14:47:50.005Z,14.60
2019-04-27T14:50:18.703Z,14.20
2019-04-27T14:52:45.484Z,13.90
2019-04-27T14:55:12.310Z,13.90
2019-04-27T14:57:39.479Z,14.20
2019-04-27T15:00:07.482Z,14.50
2019-04-27T15:02:34.280Z,14.70
2019-04-27T15:05:01.072Z,14.80
2019-04-27T15:07:27.916Z,14.50
2019-04-27T15:09:57.464Z,14.40
2019-04-27T15:12:24.505Z,14.30
2019-04-27T15:14:53.216Z,14.20
2019-04-27T15:17:40.478Z,14.00
2019-04-27T15:20:09.231Z,13.60
2019-04-27T15:22:36.117Z,13.50
2019-04-27T15:25:11.857Z,13.60
2019-04-27T15:27:37.577Z,13.50
2019-04-27T15:30:11.156Z,13.50
2019-04-27T15:32:50.682Z,13.50
2019-04-27T15:35:28.519Z,13.40
2019-04-27T15:37:57.269Z,13.50
2019-04-27T15:40:44.067Z,13.60
2019-04-27T15:43:13.651Z,13.80
2019-04-27T15:45:40.725Z,14.00
2019-04-27T15:48:08.451Z,13.90
2019-04-27T15:50:35.458Z,13.90
2019-04-27T15:53:02.922Z,13.80
2019-04-27T15:55:36.697Z,13.50
2019-04-27T15:57:59.757Z,13.30
2019-04-27T16:00:28.789Z,13.20
2019-04-27T16:02:55.993Z,13.20
2019-04-27T16:05:23.580Z,13.30
2019-04-27T16:07:51.491Z,13.30
2019-04-27T16:10:20.165Z,13.40
2019-04-27T16:13:05.211Z,13.30
2019-04-27T16:15:17.635Z,13.30
2019-04-27T16:17:53.349Z,13.30
2019-04-27T16:20:22.495Z,13.20
2019-04-27T16:22:44.661Z,13.30
2019-04-27T16:25:11.553Z,13.30
2019-04-27T16:27:38.506Z,13.30
2019-04-27T16:30:12.799Z,13.40
2019-04-27T16:32:35.742Z,13.60
2019-04-27T16:35:03.472Z,13.40
2019-04-27T16:37:35.197Z,13.40
2019-04-27T16:40:30.052Z,13.30
2019-04-27T16:43:08.835Z,13.20
2019-04-27T16:45:36.426Z,13.10
2019-04-27T16:48:09.111Z,13.10
2019-04-27T16:50:38.990Z,13.20
2019-04-27T16:53:24.370Z,13.10
2019-04-27T16:56:14.680Z,13.20
2019-04-27T16:58:41.774Z,13.20
2019-04-27T17:01:18.384Z,13.20
2019-04-27T17:03:45.556Z,13.20
2019-04-27T17:06:12.401Z,13.10
2019-04-27T17:08:39.503Z,13.00
2019-04-27T17:11:11.505Z,12.90
2019-04-27T17:13:38.964Z,12.90
2019-04-27T17:16:10.669Z,12.90
2019-04-27T17:18:39.368Z,13.00
2019-04-27T17:21:18.288Z,13.00
2019-04-27T17:23:34.883Z,13.00
2019-04-27T17:26:06.242Z,12.90
2019-04-27T17:28:37.593Z,12.80
2019-04-27T17:31:04.000Z,12.80
2019-04-27T17:33:38.240Z,12.70
2019-04-27T17:36:05.044Z,12.70
2019-04-27T17:38:31.972Z,12.70
2019-04-27T17:40:58.805Z,12.60
2019-04-27T17:43:25.599Z,12.60
2019-04-27T17:45:52.397Z,12.60
2019-04-27T17:48:19.257Z,12.50
2019-04-27T17:50:46.131Z,12.50
2019-04-27T17:53:12.973Z,12.50
2019-04-27T17:55:39.849Z,12.40
2019-04-27T17:58:06.855Z,12.40
2019-04-27T18:00:40.960Z,12.40
2019-04-27T18:03:02.633Z,12.40
2019-04-27T18:05:29.576Z,12.40
2019-04-27T18:07:57.971Z,12.40
2019-04-27T18:10:24.953Z,12.40
2019-04-27T18:12:51.834Z,12.30
2019-04-27T18:15:18.727Z,12.00
2019-04-27T18:17:50.003Z,11.50
2019-04-27T18:20:18.413Z,11.20
2019-04-27T18:22:49.901Z,10.90
2019-04-27T18:25:18.584Z,10.90
2019-04-27T18:27:48.328Z,10.90
2019-04-27T18:30:19.034Z,10.90
2019-04-27T18:32:46.015Z,10.80
2019-04-27T18:35:19.971Z,10.80
2019-04-27T18:37:44.792Z,10.80
2019-04-27T18:40:11.726Z,10.70
2019-04-27T18:42:39.437Z,10.60
2019-04-27T18:45:08.209Z,10.50
2019-04-27T18:47:38.641Z,10.30
2019-04-27T18:50:22.744Z,10.00
2019-04-27T18:52:51.333Z,9.80
2019-04-27T18:55:20.556Z,9.50
2019-04-27T18:57:51.140Z,9.40
2019-04-27T19:00:18.265Z,9.40
2019-04-27T19:02:45.144Z,9.20
2019-04-27T19:05:11.993Z,9.00
2019-04-27T19:07:38.867Z,8.80
2019-04-27T19:10:05.918Z,8.60
2019-04-27T19:12:32.740Z,8.60
2019-04-27T19:14:59.576Z,8.40
2019-04-27T19:17:27.803Z,8.30
2019-04-27T19:19:54.997Z,8.30
2019-04-27T19:22:21.820Z,8.20
2019-04-27T19:24:48.683Z,8.30
2019-04-27T19:27:33.912Z,8.30
2019-04-27T19:30:02.565Z,8.20
2019-04-27T19:32:29.409Z,8.20
2019-04-27T19:34:56.205Z,8.10
2019-04-27T19:37:23.060Z,8.20
2019-04-27T19:39:49.958Z,8.20
2019-04-27T19:42:19.950Z,8.20
2019-04-27T19:44:45.451Z,8.10
2019-04-27T19:47:12.314Z,8.10
2019-04-27T19:49:39.161Z,8.10
2019-04-27T19:52:05.946Z,8.10
2019-04-27T19:54:32.780Z,8.00
2019-04-27T19:56:59.719Z,8.10
2019-04-27T19:59:31.253Z,8.00
2019-04-27T20:01:59.852Z,8.00
2019-04-27T20:04:31.516Z,8.00
2019-04-27T20:06:58.803Z,8.00
2019-04-27T20:09:36.472Z,8.00
2019-04-27T20:12:05.085Z,8.00
2019-04-27T20:14:33.710Z,8.00
2019-04-27T20:17:00.553Z,8.10
2019-04-27T20:19:28.288Z,8.00
2019-04-27T20:21:55.081Z,7.90
2019-04-27T20:24:22.841Z,7.80
2019-04-27T20:26:49.736Z,7.90
2019-04-27T20:29:16.579Z,7.80
2019-04-27T20:31:43.425Z,7.80
2019-04-27T20:34:10.275Z,7.80
2019-04-27T20:36:37.053Z,7.60
2019-04-27T20:39:05.934Z,7.60
2019-04-27T20:41:32.969Z,7.70
2019-04-27T20:43:59.745Z,7.60
2019-04-27T20:46:26.626Z,7.70
2019-04-27T20:48:53.426Z,7.70
2019-04-27T20:51:22.057Z,7.70
2019-04-27T20:53:56.252Z,7.70
2019-04-27T20:56:23.108Z,7.60
2019-04-27T20:58:51.015Z,7.60
2019-04-27T21:01:17.926Z,7.50
2019-04-27T21:03:51.179Z,7.40
2019-04-27T21:06:26.024Z,7.40
2019-04-27T21:08:52.876Z,7.50
2019-04-27T21:11:20.942Z,7.40
2019-04-27T21:13:47.856Z,7.50
2019-04-27T21:16:14.636Z,7.40
2019-04-27T21:18:41.954Z,7.30
2019-04-27T21:21:08.955Z,7.30
2019-04-27T21:23:35.797Z,7.30
2019-04-27T21:26:02.592Z,7.20
2019-04-27T21:28:29.374Z,7.20
2019-04-27T21:30:56.200Z,7.10
2019-04-27T21:33:22.980Z,7.10
2019-04-27T21:35:51.224Z,7.10
2019-04-27T21:38:18.161Z,7.00
2019-04-27T21:40:45.005Z,7.00
2019-04-27T21:43:11.853Z,6.90
2019-04-27T21:45:38.636Z,7.00
2019-04-27T21:48:05.479Z,6.90
2019-04-27T21:50:32.307Z,6.90
2019-04-27T21:53:02.515Z,6.90
2019-04-27T21:55:31.365Z,6.90
2019-04-27T21:57:58.151Z,6.90
2019-04-27T22:00:39.302Z,6.80
2019-04-27T22:03:06.337Z,6.80
2019-04-27T22:05:33.421Z,6.80
2019-04-27T22:08:03.331Z,6.80
2019-04-27T22:10:31.071Z,6.80
2019-04-27T22:12:58.109Z,6.70
2019-04-27T22:15:24.889Z,6.60
2019-04-27T22:17:51.733Z,6.60
2019-04-27T22:20:18.529Z,6.60
2019-04-27T22:22:51.551Z,6.60
2019-04-27T22:25:21.705Z,6.60
2019-04-27T22:27:51.359Z,6.60
2019-04-27T22:30:18.285Z,6.50
2019-04-27T22:32:45.117Z,6.60
2019-04-27T22:35:12.160Z,6.70
2019-04-27T22:37:38.993Z,6.80
2019-04-27T22:40:09.626Z,6.80
2019-04-27T22:42:47.405Z,6.90
2019-04-27T22:45:16.053Z,6.90
2019-04-27T22:47:42.832Z,6.90
2019-04-27T22:50:10.570Z,6.90
2019-04-27T22:52:38.289Z,6.90
2019-04-27T22:55:05.732Z,6.90
2019-04-27T22:57:34.321Z,7.00
2019-04-27T23:00:22.063Z,7.00
2019-04-27T23:02:52.252Z,7.10
2019-04-27T23:05:20.763Z,7.00
2019-04-27T23:07:48.721Z,7.00
2019-04-27T23:10:15.560Z,7.00
2019-04-27T23:12:42.396Z,6.90
2019-04-27T23:15:11.254Z,6.80
2019-04-27T23:17:52.014Z,6.80
2019-04-27T23:20:20.725Z,6.80
2019-04-27T23:22:47.421Z,6.80
2019-04-27T23:25:14.201Z,6.70
2019-04-27T23:27:41.122Z,6.70
2019-04-27T23:30:11.203Z,6.70
2019-04-27T23:32:42.792Z,6.70
2019-04-27T23:35:09.574Z,6.60
2019-04-27T23:37:36.445Z,6.60
2019-04-27T23:40:06.185Z,6.60
2019-04-27T23:42:32.972Z,6.60
2019-04-27T23:44:59.816Z,6.60
2019-04-27T23:47:26.696Z,6.50
2019-04-27T23:49:53.533Z,6.50
2019-04-27T23:52:22.273Z,6.50
2019-04-27T23:54:49.049Z,6.60
2019-04-27T23:57:15.884Z,6.60
2019-04-27T23:59:42.676Z,6.60
